• Join FlightAware (Why Join?)
  • Login
  • US Flag 
01:01AM EST


 

Airport Tracker/Info


-or-


 

Live Flight TrackerFlight Track Log ✈ AFL1730 ✈ 29-Aug-2014 ✈ UUEE / SVO - UHPP / PKC

Flight Track Log - Related Links

Times and Time Zones

All times are in EDT time to prevent confusion due to time zone crossing. See the AFL1730 flight status page for this flight to view local times or setup timezone preferences in your user account.

Time Position Orientation Groundspeed Altitude Reporting Facility
EDT Latitude Longitude Course Direction KTS MPH feet Rate Location/Type
09:26AM 55.9618 37.3418 286° West 182 209 3,000  Level FlightAware ADS-B (UUWV / MOW)
09:26AM 55.9651 37.3260 309° West 179 206 3,500 1,380 Climbing FlightAware ADS-B (UUWV / MOW)
09:27AM 55.9914 37.2675 309° West 210 242 4,500 1,200 Climbing FlightAware ADS-B (UUWV / MOW)
09:27AM 56.0129 37.2208 309° West 247 284 5,000 1,800 Climbing FlightAware ADS-B (UUWV / MOW)
09:28AM 56.0358 37.1709 309° West 253 291 6,400 2,520 Climbing FlightAware ADS-B (UUWV / MOW)
09:28AM 56.0586 37.1222 310° West 259 298 7,600 2,340 Climbing FlightAware ADS-B (UUWV / MOW)
09:29AM 56.0839 37.0685 310° West 267 307 8,800 2,100 Climbing FlightAware ADS-B (UUWV / MOW)
09:29AM 56.0961 37.0430 311° West 275 316 9,300 2,280 Climbing FlightAware ADS-B (UUWV / MOW)
09:30AM 56.1335 36.9642 311° West 284 327 11,100 2,460 Climbing FlightAware ADS-B (UUWV / MOW)
09:30AM 56.1688 36.9308 349° North 294 338 12,400 1,920 Climbing FlightAware ADS-B (UUWV / MOW)
09:31AM 56.2161 36.9191 352° North 337 388 13,500 1,320 Climbing FlightAware ADS-B (UUWV / MOW)
09:32AM 56.2825 36.9016 351° North 367 422 14,100 2,100 Climbing FlightAware ADS-B (UUWV / MOW)
09:32AM 56.3587 36.8959 12° North 381 438 16,100 3,240 Climbing FlightAware ADS-B (UUWV / MOW)
09:33AM 56.4006 36.9263 33° Northeast 370 426 18,000 2,820 Climbing FlightAware ADS-B (UUWV / MOW)
09:33AM 56.4274 36.9659 45° Northeast 389 448 18,300 1,440 Climbing FlightAware ADS-B (UUWV / MOW)
09:34AM 56.5161 37.1724 52° Northeast 432 497 20,300 1,800 Climbing FlightAware ADS-B (UUWV / MOW)
09:36AM 56.6453 37.5377 62° Northeast 463 533 24,100 1,800 Climbing FlightAware ADS-B (UUWV / MOW)
09:37AM 56.6779 37.6477 58° Northeast 468 539 24,900 1,500 Climbing FlightAware ADS-B (UUWV / MOW)
09:37AM 56.7077 37.7181 45° Northeast 469 540 25,700 1,560 Climbing FlightAware ADS-B (UUWV / MOW)
09:38AM 56.7840 37.8428 41° Northeast 474 545 26,700 1,500 Climbing FlightAware ADS-B (UUWV / MOW)
09:39AM 56.8912 38.0100 41° Northeast 487 560 28,300 1,440 Climbing FlightAware ADS-B (UUWV / MOW)
09:39AM 56.9429 38.0914 41° Northeast 493 567 29,000 1,260 Climbing FlightAware ADS-B (UUWV / MOW)
09:40AM 57.0001 38.1820 41° Northeast 500 575 29,700 1,380 Climbing FlightAware ADS-B (UUWV / MOW)
09:41AM 57.0978 38.3378 41° Northeast 502 578 31,200 1,500 Climbing FlightAware ADS-B (UUWV / MOW)
09:44AM 57.3494 38.6904 37° Northeast  Level Estimated
09:45AM 57.4498 38.8327 37° Northeast  Level Estimated
09:46AM 57.5500 38.9759 37° Northeast  Level Estimated
09:47AM 57.6501 39.1198 38° Northeast  Level Estimated
09:48AM 57.7499 39.2646 38° Northeast  Level Estimated
09:49AM 57.8497 39.4101 38° Northeast  Level Estimated
09:50AM 57.9492 39.5565 38° Northeast  Level Estimated
09:51AM 58.0486 39.7036 38° Northeast  Level Estimated
09:52AM 58.1478 39.8516 38° Northeast  Level Estimated
09:53AM 58.2468 40.0004 38° Northeast  Level Estimated
09:54AM 58.3437 40.1470 38° Northeast  Level Estimated
09:55AM 58.4403 40.2944 39° Northeast  Level Estimated
09:56AM 58.5368 40.4426 39° Northeast  Level Estimated
09:57AM 58.6332 40.5916 39° Northeast  Level Estimated
09:58AM 58.7293 40.7415 39° Northeast  Level Estimated
09:59AM 58.8253 40.8921 39° Northeast  Level Estimated
10:00AM 58.9211 41.0436 39° Northeast  Level Estimated
10:01AM 59.0168 41.1960 39° Northeast  Level Estimated
10:02AM 59.1122 41.3492 39° Northeast  Level Estimated
10:03AM 59.2075 41.5032 40° Northeast  Level Estimated
10:04AM 59.3026 41.6581 40° Northeast  Level Estimated
10:05AM 59.3975 41.8139 40° Northeast  Level Estimated
10:06AM 59.4922 41.9705 40° Northeast  Level Estimated
10:07AM 59.5867 42.1281 40° Northeast  Level Estimated
10:08AM 59.6811 42.2865 40° Northeast  Level Estimated
10:09AM 59.7752 42.4458 40° Northeast  Level Estimated
10:10AM 59.8691 42.6060 41° Northeast  Level Estimated
10:11AM 59.9629 42.7671 41° Northeast  Level Estimated
10:12AM 60.0565 42.9292 41° Northeast  Level Estimated
10:13AM 60.1498 43.0921 41° Northeast  Level Estimated
10:14AM 60.2430 43.2560 41° Northeast  Level Estimated
10:15AM 60.3359 43.4208 41° Northeast  Level Estimated
10:16AM 60.4287 43.5866 41° Northeast  Level Estimated
10:17AM 60.5212 43.7533 42° Northeast  Level Estimated
10:18AM 60.6136 43.9209 42° Northeast  Level Estimated
10:19AM 60.7057 44.0896 42° Northeast  Level Estimated
10:20AM 60.7976 44.2591 42° Northeast  Level Estimated
10:21AM 60.8893 44.4297 42° Northeast  Level Estimated
10:22AM 60.9808 44.6012 42° Northeast  Level Estimated
10:23AM 61.0720 44.7738 42° Northeast  Level Estimated
10:24AM 61.1631 44.9473 43° Northeast  Level Estimated
10:25AM 61.2539 45.1218 43° Northeast  Level Estimated
10:26AM 61.3445 45.2974 43° Northeast  Level Estimated
10:27AM 61.4348 45.4739 43° Northeast  Level Estimated
10:28AM 61.5250 45.6515 43° Northeast  Level Estimated
10:29AM 61.6149 45.8301 43° Northeast  Level Estimated
10:30AM 61.7045 46.0098 43° Northeast  Level Estimated
10:31AM 61.7939 46.1905 44° Northeast  Level Estimated
10:32AM 61.8831 46.3722 44° Northeast  Level Estimated
10:33AM 61.9721 46.5551 44° Northeast  Level Estimated
10:34AM 62.0608 46.7389 44° Northeast  Level Estimated
10:35AM 62.1493 46.9239 44° Northeast  Level Estimated
10:36AM 62.2375 47.1100 44° Northeast  Level Estimated
10:37AM 62.3254 47.2971 45° Northeast  Level Estimated
10:38AM 62.4131 47.4853 45° Northeast  Level Estimated
10:39AM 62.5006 47.6746 45° Northeast  Level Estimated
10:40AM 62.5878 47.8651 45° Northeast  Level Estimated
10:41AM 62.6747 48.0566 45° Northeast  Level Estimated
10:42AM 62.7614 48.2493 45° Northeast  Level Estimated
10:43AM 62.8478 48.4432 46° Northeast  Level Estimated
10:44AM 62.9339 48.6381 46° Northeast  Level Estimated
10:45AM 63.0198 48.8343 46° Northeast  Level Estimated
10:46AM 63.1054 49.0315 46° Northeast  Level Estimated
10:47AM 63.1907 49.2299 46° Northeast  Level Estimated
10:48AM 63.2758 49.4296 46° Northeast  Level Estimated
10:49AM 63.3605 49.6303 47° Northeast  Level Estimated
10:50AM 63.4450 49.8323 47° Northeast  Level Estimated
10:51AM 63.5292 50.0355 47° Northeast  Level Estimated
10:52AM 63.6131 50.2398 47° Northeast  Level Estimated
10:53AM 63.6967 50.4454 47° Northeast  Level Estimated
10:54AM 63.7800 50.6522 48° Northeast  Level Estimated
10:55AM 63.8630 50.8602 48° Northeast  Level Estimated
10:56AM 63.9458 51.0694 48° Northeast  Level Estimated
10:57AM 64.0282 51.2799 48° Northeast  Level Estimated
10:58AM 64.1103 51.4916 48° Northeast  Level Estimated
10:59AM 64.1921 51.7046 49° Northeast  Level Estimated
11:00AM 64.2736 51.9188 49° Northeast  Level Estimated
11:01AM 64.3547 52.1343 49° Northeast  Level Estimated
11:02AM 64.4356 52.3511 49° Northeast  Level Estimated
11:03AM 64.5161 52.5692 49° Northeast  Level Estimated
11:04AM 64.5963 52.7885 49° Northeast  Level Estimated
11:05AM 64.6762 53.0091 50° Northeast  Level Estimated
11:06AM 64.7558 53.2311 50° Northeast  Level Estimated
11:07AM 64.8350 53.4543 50° Northeast  Level Estimated
11:08AM 64.9138 53.6788 50° Northeast  Level Estimated
11:09AM 64.9924 53.9047 51° Northeast  Level Estimated
11:10AM 65.0706 54.1319 51° Northeast  Level Estimated
11:11AM 65.1484 54.3605 51° Northeast  Level Estimated
11:12AM 65.2259 54.5904 51° Northeast  Level Estimated
11:13AM 65.3031 54.8216 51° Northeast  Level Estimated
11:14AM 65.3799 55.0542 52° Northeast  Level Estimated
11:15AM 65.4563 55.2881 52° Northeast  Level Estimated
11:16AM 65.5324 55.5234 52° Northeast  Level Estimated
11:17AM 65.6081 55.7601 52° Northeast  Level Estimated
11:18AM 65.6834 55.9982 52° Northeast  Level Estimated
11:19AM 65.7584 56.2377 53° Northeast  Level Estimated
11:20AM 65.8329 56.4785 53° Northeast  Level Estimated
11:21AM 65.9072 56.7207 53° Northeast  Level Estimated
11:22AM 65.9810 56.9644 53° Northeast  Level Estimated
11:23AM 66.0544 57.2094 53° Northeast  Level Estimated
11:24AM 66.1274 57.4559 54° Northeast  Level Estimated
11:25AM 66.2001 57.7038 54° Northeast  Level Estimated
11:26AM 66.2723 57.9531 54° Northeast  Level Estimated
11:27AM 66.3442 58.2039 54° Northeast  Level Estimated
11:28AM 66.4156 58.4561 55° Northeast  Level Estimated
11:29AM 66.4866 58.7097 55° Northeast  Level Estimated
11:30AM 66.5573 58.9647 55° Northeast  Level Estimated
11:31AM 66.6275 59.2213 55° Northeast  Level Estimated
11:32AM 66.6972 59.4793 56° Northeast  Level Estimated
11:33AM 66.7666 59.7387 56° Northeast  Level Estimated
11:34AM 66.8355 59.9996 56° Northeast  Level Estimated
11:35AM 66.9040 60.2619 56° Northeast  Level Estimated
11:36AM 66.9721 60.5258 57° Northeast  Level Estimated
11:37AM 67.0397 60.7911 57° Northeast  Level Estimated
11:38AM 67.1069 61.0578 57° Northeast  Level Estimated
11:39AM 67.1736 61.3261 57° Northeast  Level Estimated
11:40AM 67.2399 61.5959 57° Northeast  Level Estimated
11:41AM 67.3057 61.8671 58° Northeast  Level Estimated
11:42AM 67.3710 62.1398 58° Northeast  Level Estimated
11:43AM 67.4360 62.4140 58° Northeast  Level Estimated
11:44AM 67.5004 62.6897 58° Northeast  Level Estimated
11:45AM 67.5643 62.9669 59° Northeast  Level Estimated
11:46AM 67.6278 63.2456 59° Northeast  Level Estimated
11:47AM 67.6908 63.5258 59° Northeast  Level Estimated
11:48AM 67.7533 63.8075 60° Northeast  Level Estimated
11:49AM 67.8154 64.0907 60° Northeast  Level Estimated
11:50AM 67.8769 64.3754 60° Northeast  Level Estimated
11:51AM 67.9380 64.6616 60° Northeast  Level Estimated
11:52AM 67.9985 64.9493 61° Northeast  Level Estimated
11:53AM 68.0585 65.2386 61° Northeast  Level Estimated
11:54AM 68.1181 65.5293 61° Northeast  Level Estimated
11:55AM 68.1771 65.8215 61° Northeast  Level Estimated
11:56AM 68.2356 66.1152 62° Northeast  Level Estimated
11:57AM 68.2935 66.4104 62° Northeast  Level Estimated
11:58AM 68.3510 66.7071 62° Northeast  Level Estimated
11:59AM 68.4079 67.0053 62° Northeast  Level Estimated
12:00PM 68.4643 67.3050 63° Northeast  Level Estimated
12:01PM 68.5202 67.6062 63° Northeast  Level Estimated
12:02PM 68.5755 67.9089 63° Northeast  Level Estimated
12:03PM 68.6302 68.2131 64° Northeast  Level Estimated
12:04PM 68.6845 68.5187 64° Northeast  Level Estimated
12:05PM 68.7381 68.8258 64° Northeast  Level Estimated
12:06PM 68.7912 69.1344 64° Northeast  Level Estimated
12:07PM 68.8438 69.4445 65° Northeast  Level Estimated
12:08PM 68.8957 69.7560 65° Northeast  Level Estimated
12:09PM 68.9471 70.0690 65° Northeast  Level Estimated
12:10PM 68.9979 70.3835 66° East  Level Estimated
12:11PM 69.0482 70.6994 66° East  Level Estimated
12:12PM 69.0978 71.0167 66° East  Level Estimated
12:13PM 69.1469 71.3355 66° East  Level Estimated
12:14PM 69.1954 71.6557 67° East  Level Estimated
12:15PM 69.2432 71.9773 67° East  Level Estimated
12:16PM 69.2905 72.3003 67° East  Level Estimated
12:17PM 69.3372 72.6248 68° East  Level Estimated
12:18PM 69.3833 72.9506 68° East  Level Estimated
12:19PM 69.4287 73.2778 68° East  Level Estimated
12:20PM 69.4735 73.6064 69° East  Level Estimated
12:21PM 69.5178 73.9364 69° East  Level Estimated
12:22PM 69.5613 74.2677 69° East  Level Estimated
12:23PM 69.6043 74.6004 70° East  Level Estimated
12:24PM 69.6466 74.9344 70° East  Level Estimated
12:25PM 69.6883 75.2697 70° East  Level Estimated
12:26PM 69.7293 75.6063 70° East  Level Estimated
12:27PM 69.7698 75.9443 71° East  Level Estimated
12:28PM 69.8095 76.2835 71° East  Level Estimated
12:29PM 69.8486 76.6240 71° East  Level Estimated
12:30PM 69.8870 76.9657 72° East  Level Estimated
12:31PM 69.9248 77.3087 72° East  Level Estimated
12:32PM 69.9619 77.6529 72° East  Level Estimated
12:33PM 69.9984 77.9984 73° East  Level Estimated
12:34PM 70.0341 78.3450 73° East  Level Estimated
12:35PM 70.0693 78.6928 73° East  Level Estimated
12:36PM 70.1037 79.0418 74° East  Level Estimated
12:37PM 70.1374 79.3919 74° East  Level Estimated
12:38PM 70.1705 79.7432 74° East  Level Estimated
12:39PM 70.2028 80.0955 75° East  Level Estimated
12:40PM 70.2345 80.4490 75° East  Level Estimated
12:41PM 70.2655 80.8036 75° East  Level Estimated
12:42PM 70.2957 81.1591 76° East  Level Estimated
12:43PM 70.3253 81.5158 76° East  Level Estimated
12:44PM 70.3542 81.8735 76° East  Level Estimated
12:45PM 70.3823 82.2321 77° East  Level Estimated
12:46PM 70.4098 82.5918 77° East  Level Estimated
12:47PM 70.4365 82.9523 77° East  Level Estimated
12:48PM 70.4625 83.3139 78° East  Level Estimated
12:49PM 70.4878 83.6763 78° East  Level Estimated
12:50PM 70.5124 84.0396 78° East  Level Estimated
12:51PM 70.5362 84.4038 79° East  Level Estimated
12:52PM 70.5593 84.7689 79° East  Level Estimated
12:53PM 70.5817 85.1348 79° East  Level Estimated
12:54PM 70.6034 85.5014 80° East  Level Estimated
12:55PM 70.6243 85.8689 80° East  Level Estimated
12:56PM 70.6444 86.2371 80° East  Level Estimated
12:57PM 70.6639 86.6060 81° East  Level Estimated
12:58PM 70.6826 86.9756 81° East  Level Estimated
12:59PM 70.7005 87.3459 81° East  Level Estimated
01:00PM 70.7177 87.7169 82° East  Level Estimated
01:01PM 70.7341 88.0884 82° East  Level Estimated
01:02PM 70.7498 88.4606 83° East  Level Estimated
01:03PM 70.7648 88.8333 83° East  Level Estimated
01:04PM 70.7790 89.2066 83° East  Level Estimated
01:05PM 70.7924 89.5804 84° East  Level Estimated
01:06PM 70.8050 89.9547 84° East  Level Estimated
01:07PM 70.8169 90.3294 84° East  Level Estimated
01:08PM 70.8281 90.7046 85° East  Level Estimated
01:09PM 70.8385 91.0801 85° East  Level Estimated
01:10PM 70.8481 91.4561 85° East  Level Estimated
01:11PM 70.8569 91.8324 86° East  Level Estimated
01:12PM 70.8650 92.2090 86° East  Level Estimated
01:13PM 70.8724 92.5860 86° East  Level Estimated
01:14PM 70.8789 92.9631 87° East  Level Estimated
01:15PM 70.8847 93.3406 87° East  Level Estimated
01:16PM 70.8897 93.7182 88° East  Level Estimated
01:17PM 70.8939 94.0960 88° East  Level Estimated
01:18PM 70.8974 94.4739 88° East  Level Estimated
01:19PM 70.9001 94.8520 89° East  Level Estimated
01:20PM 70.9020 95.2301 89° East  Level Estimated
01:21PM 70.9032 95.6084 89° East  Level Estimated
01:22PM 70.9036 95.9866 90° East  Level Estimated
01:23PM 70.9032 96.3648 90° East  Level Estimated
01:24PM 70.9020 96.7430 90° East  Level Estimated
01:25PM 70.9001 97.1212 91° East  Level Estimated
01:26PM 70.8974 97.4993 91° East  Level Estimated
01:27PM 70.8939 97.8772 91° East  Level Estimated
01:28PM 70.8897 98.2550 92° East  Level Estimated
01:29PM 70.8847 98.6326 92° East  Level Estimated
01:30PM 70.8789 99.0100 93° East  Level Estimated
01:31PM 70.8723 99.3872 93° East  Level Estimated
01:32PM 70.8650 99.7641 93° East  Level Estimated
01:33PM 70.8569 100.1408 94° East  Level Estimated
01:34PM 70.8481 100.5171 94° East  Level Estimated
01:35PM 70.8384 100.8930 94° East  Level Estimated
01:36PM 70.8281 101.2686 95° East  Level Estimated
01:37PM 70.8169 101.6438 95° East  Level Estimated
01:38PM 70.8050 102.0185 95° East  Level Estimated
01:39PM 70.7923 102.3928 96° East  Level Estimated
01:40PM 70.7789 102.7666 96° East  Level Estimated
01:41PM 70.7647 103.1399 96° East  Level Estimated
01:42PM 70.7498 103.5126 97° East  Level Estimated
01:43PM 70.7341 103.8848 97° East  Level Estimated
01:44PM 70.7177 104.2563 97° East  Level Estimated
01:45PM 70.7004 104.6273 98° East  Level Estimated
01:46PM 70.6825 104.9975 98° East  Level Estimated
01:47PM 70.6638 105.3672 99° East  Level Estimated
01:48PM 70.6444 105.7361 99° East  Level Estimated
01:49PM 70.6242 106.1043 99° East  Level Estimated
01:50PM 70.6033 106.4717 100° East  Level Estimated
01:51PM 70.5816 106.8384 100° East  Level Estimated
01:52PM 70.5593 107.2042 100° East  Level Estimated
01:53PM 70.5362 107.5693 101° East  Level Estimated
01:54PM 70.5123 107.9335 101° East  Level Estimated
01:55PM 70.4877 108.2968 101° East  Level Estimated
01:56PM 70.4624 108.6593 102° East  Level Estimated
01:57PM 70.4364 109.0208 102° East  Level Estimated
01:58PM 70.4097 109.3814 102° East  Level Estimated
01:59PM 70.3822 109.7410 103° East  Level Estimated
02:00PM 70.3541 110.0997 103° East  Level Estimated
02:01PM 70.3252 110.4573 103° East  Level Estimated
02:02PM 70.2956 110.8140 104° East  Level Estimated
02:03PM 70.2654 111.1696 104° East  Level Estimated
02:04PM 70.2344 111.5241 104° East  Level Estimated
02:05PM 70.2027 111.8776 105° East  Level Estimated
02:06PM 70.1704 112.2299 105° East  Level Estimated
02:07PM 70.1373 112.5812 105° East  Level Estimated
02:08PM 70.1036 112.9313 106° East  Level Estimated
02:09PM 70.0691 113.2803 106° East  Level Estimated
02:10PM 70.0340 113.6281 106° East  Level Estimated
02:11PM 69.9983 113.9747 107° East  Level Estimated
02:12PM 69.9618 114.3202 107° East  Level Estimated
02:13PM 69.9247 114.6644 107° East  Level Estimated
02:14PM 69.8869 115.0074 108° East  Level Estimated
02:15PM 69.8485 115.3491 108° East  Level Estimated
02:16PM 69.8094 115.6896 108° East  Level Estimated
02:17PM 69.7696 116.0288 109° East  Level Estimated
02:18PM 69.7292 116.3667 109° East  Level Estimated
02:19PM 69.6882 116.7033 109° East  Level Estimated
02:20PM 69.6465 117.0387 110° East  Level Estimated
02:21PM 69.6042 117.3727 110° East  Level Estimated
02:22PM 69.5612 117.7053 110° East  Level Estimated
02:23PM 69.5176 118.0366 110° East  Level Estimated
02:24PM 69.4734 118.3666 111° Southeast  Level Estimated
02:25PM 69.4286 118.6952 111° Southeast  Level Estimated
02:26PM 69.3831 119.0224 111° Southeast  Level Estimated
02:27PM 69.3371 119.3482 112° Southeast  Level Estimated
02:28PM 69.2904 119.6727 112° Southeast  Level Estimated
02:29PM 69.2431 119.9957 112° Southeast  Level Estimated
02:30PM 69.1952 120.3173 113° Southeast  Level Estimated
02:31PM 69.1468 120.6375 113° Southeast  Level Estimated
02:32PM 69.0977 120.9563 113° Southeast  Level Estimated
02:33PM 69.0480 121.2736 114° Southeast  Level Estimated
02:34PM 68.9978 121.5895 114° Southeast  Level Estimated
02:35PM 68.9470 121.9040 114° Southeast  Level Estimated
02:36PM 68.8956 122.2169 114° Southeast  Level Estimated
02:37PM 68.8436 122.5285 115° Southeast  Level Estimated
02:38PM 68.7911 122.8385 115° Southeast  Level Estimated
02:39PM 68.7380 123.1471 115° Southeast  Level Estimated
02:40PM 68.6843 123.4543 116° Southeast  Level Estimated
02:41PM 68.6301 123.7599 116° Southeast  Level Estimated
02:42PM 68.5753 124.0641 116° Southeast  Level Estimated
02:43PM 68.5200 124.3667 116° Southeast  Level Estimated
02:44PM 68.4641 124.6679 117° Southeast  Level Estimated
02:45PM 68.4078 124.9676 117° Southeast  Level Estimated
02:46PM 68.3508 125.2658 117° Southeast  Level Estimated
02:47PM 68.2934 125.5625 118° Southeast  Level Estimated
02:48PM 68.2354 125.8577 118° Southeast  Level Estimated
02:49PM 68.1769 126.1514 118° Southeast  Level Estimated
02:50PM 68.1179 126.4436 118° Southeast  Level Estimated
02:51PM 68.0583 126.7344 119° Southeast  Level Estimated
02:52PM 67.9983 127.0236 119° Southeast  Level Estimated
02:53PM 67.9378 127.3113 119° Southeast  Level Estimated
02:54PM 67.8767 127.5975 119° Southeast  Level Estimated
02:55PM 67.8152 127.8822 120° Southeast  Level Estimated
02:56PM 67.7532 128.1654 120° Southeast  Level Estimated
02:57PM 67.6906 128.4471 120° Southeast  Level Estimated
02:58PM 67.6276 128.7272 120° Southeast  Level Estimated
02:59PM 67.5641 129.0059 121° Southeast  Level Estimated
03:00PM 67.5002 129.2831 121° Southeast  Level Estimated
03:01PM 67.4358 129.5588 121° Southeast  Level Estimated
03:02PM 67.3709 129.8331 122° Southeast  Level Estimated
03:03PM 67.3055 130.1058 122° Southeast  Level Estimated
03:04PM 67.2397 130.3770 122° Southeast  Level Estimated
03:05PM 67.1734 130.6467 122° Southeast  Level Estimated
03:06PM 67.1067 130.9150 123° Southeast  Level Estimated
03:07PM 67.0395 131.1818 123° Southeast  Level Estimated
03:08PM 66.9719 131.4471 123° Southeast  Level Estimated
03:09PM 66.9038 131.7109 123° Southeast  Level Estimated
03:10PM 66.8353 131.9733 123° Southeast  Level Estimated
03:11PM 66.7664 132.2341 124° Southeast  Level Estimated
03:12PM 66.6970 132.4936 124° Southeast  Level Estimated
03:13PM 66.6273 132.7516 124° Southeast  Level Estimated
03:14PM 66.5571 133.0081 124° Southeast  Level Estimated
03:15PM 66.4864 133.2631 125° Southeast  Level Estimated
03:16PM 66.4154 133.5168 125° Southeast  Level Estimated
03:17PM 66.3440 133.7689 125° Southeast  Level Estimated
03:18PM 66.2721 134.0197 125° Southeast  Level Estimated
03:19PM 66.1999 134.2690 126° Southeast  Level Estimated
03:20PM 66.1272 134.5169 126° Southeast  Level Estimated
03:21PM 66.0542 134.7633 126° Southeast  Level Estimated
03:22PM 65.9808 135.0084 126° Southeast  Level Estimated
03:23PM 65.9069 135.2520 127° Southeast  Level Estimated
03:24PM 65.8327 135.4943 127° Southeast  Level Estimated
03:25PM 65.7581 135.7351 127° Southeast  Level Estimated
03:26PM 65.6832 135.9746 127° Southeast  Level Estimated
03:27PM 65.6079 136.2126 127° Southeast  Level Estimated
03:28PM 65.5322 136.4493 128° Southeast  Level Estimated
03:29PM 65.4561 136.6846 128° Southeast  Level Estimated
03:30PM 65.3796 136.9186 128° Southeast  Level Estimated
03:31PM 65.3029 137.1512 128° Southeast  Level Estimated
03:32PM 65.2257 137.3824 128° Southeast  Level Estimated
03:33PM 65.1482 137.6123 129° Southeast  Level Estimated
03:34PM 65.0704 137.8408 129° Southeast  Level Estimated
03:35PM 64.9922 138.0680 129° Southeast  Level Estimated
03:36PM 64.9136 138.2939 129° Southeast  Level Estimated
03:37PM 64.8347 138.5184 129° Southeast  Level Estimated
03:38PM 64.7555 138.7417 130° Southeast  Level Estimated
03:39PM 64.6760 138.9636 130° Southeast  Level Estimated
03:40PM 64.5961 139.1842 130° Southeast  Level Estimated
03:41PM 64.5159 139.4035 130° Southeast  Level Estimated
03:42PM 64.4353 139.6216 131° Southeast  Level Estimated
03:43PM 64.3545 139.8384 131° Southeast  Level Estimated
03:44PM 64.2733 140.0538 131° Southeast  Level Estimated
03:45PM 64.1918 140.2681 131° Southeast  Level Estimated
03:46PM 64.1100 140.4810 131° Southeast  Level Estimated
03:47PM 64.0279 140.6928 131° Southeast  Level Estimated
03:48PM 63.9455 140.9032 132° Southeast  Level Estimated
03:49PM 63.8628 141.1125 132° Southeast  Level Estimated
03:50PM 63.7798 141.3205 132° Southeast  Level Estimated
03:51PM 63.6965 141.5273 132° Southeast  Level Estimated
03:52PM 63.6129 141.7328 132° Southeast  Level Estimated
03:53PM 63.5289 141.9372 133° Southeast  Level Estimated
03:54PM 63.4448 142.1404 133° Southeast  Level Estimated
03:55PM 63.3603 142.3423 133° Southeast  Level Estimated
03:56PM 63.2755 142.5431 133° Southeast  Level Estimated
03:57PM 63.1905 142.7427 133° Southeast  Level Estimated
03:58PM 63.1051 142.9411 134° Southeast  Level Estimated
03:59PM 63.0196 143.1384 134° Southeast  Level Estimated
04:00PM 62.9337 143.3345 134° Southeast  Level Estimated
04:01PM 62.8475 143.5295 134° Southeast  Level Estimated
04:02PM 62.7611 143.7233 134° Southeast  Level Estimated
04:03PM 62.6745 143.9160 134° Southeast  Level Estimated
04:04PM 62.5875 144.1075 135° Southeast  Level Estimated
04:05PM 62.5003 144.2980 135° Southeast  Level Estimated
04:06PM 62.4129 144.4873 135° Southeast  Level Estimated
04:07PM 62.3252 144.6755 135° Southeast  Level Estimated
04:08PM 62.2372 144.8627 135° Southeast  Level Estimated
04:09PM 62.1490 145.0487 135° Southeast  Level Estimated
04:10PM 62.0605 145.2336 136° Southeast  Level Estimated
04:11PM 61.9718 145.4175 136° Southeast  Level Estimated
04:12PM 61.8829 145.6003 136° Southeast  Level Estimated
04:13PM 61.7937 145.7821 136° Southeast  Level Estimated
04:14PM 61.7043 145.9628 136° Southeast  Level Estimated
04:15PM 61.6146 146.1424 136° Southeast  Level Estimated
04:16PM 61.5247 146.3211 137° Southeast  Level Estimated
04:17PM 61.4346 146.4986 137° Southeast  Level Estimated
04:18PM 61.3442 146.6752 137° Southeast  Level Estimated
04:19PM 61.2536 146.8507 137° Southeast  Level Estimated
04:20PM 61.1628 147.0253 137° Southeast  Level Estimated
04:21PM 61.0718 147.1988 137° Southeast  Level Estimated
04:22PM 60.9805 147.3713 137° Southeast  Level Estimated
04:23PM 60.8890 147.5429 138° Southeast  Level Estimated
04:24PM 60.7973 147.7134 138° Southeast  Level Estimated
04:25PM 60.7054 147.8830 138° Southeast  Level Estimated
04:26PM 60.6133 148.0516 138° Southeast  Level Estimated
04:27PM 60.5210 148.2193 138° Southeast  Level Estimated
04:28PM 60.4284 148.3860 138° Southeast  Level Estimated
04:29PM 60.3357 148.5517 138° Southeast  Level Estimated
04:30PM 60.2427 148.7165 139° Southeast  Level Estimated
04:31PM 60.1496 148.8804 139° Southeast  Level Estimated
04:32PM 60.0562 149.0434 139° Southeast  Level Estimated
04:33PM 59.9626 149.2054 139° Southeast  Level Estimated
04:34PM 59.8689 149.3665 139° Southeast  Level Estimated
04:35PM 59.7749 149.5267 139° Southeast  Level Estimated
04:36PM 59.6808 149.6860 139° Southeast  Level Estimated
04:37PM 59.5864 149.8445 140° Southeast  Level Estimated
04:38PM 59.4919 150.0020 140° Southeast  Level Estimated
04:39PM 59.3972 150.1586 140° Southeast  Level Estimated
04:40PM 59.3023 150.3144 140° Southeast  Level Estimated
04:41PM 59.2072 150.4693 140° Southeast  Level Estimated
04:42PM 59.1119 150.6234 140° Southeast  Level Estimated
04:43PM 59.0165 150.7766 140° Southeast  Level Estimated
04:44PM 58.9208 150.9289 141° Southeast  Level Estimated
04:45PM 58.8250 151.0804 141° Southeast  Level Estimated
04:46PM 58.7290 151.2311 141° Southeast  Level Estimated
04:47PM 58.6329 151.3809 141° Southeast  Level Estimated
04:48PM 58.5366 151.5299 141° Southeast  Level Estimated
04:49PM 58.4400 151.6781 141° Southeast  Level Estimated
04:50PM 58.3434 151.8255 141° Southeast  Level Estimated
04:51PM 58.2465 151.9721 141° Southeast  Level Estimated
04:52PM 58.1495 152.1178 142° Southeast  Level Estimated
04:53PM 58.0523 152.2628 142° Southeast  Level Estimated
04:54PM 57.9550 152.4070 142° Southeast  Level Estimated
04:55PM 57.8575 152.5504 142° Southeast  Level Estimated
04:56PM 57.7598 152.6931 142° Southeast  Level Estimated
04:57PM 57.6620 152.8349 142° Southeast  Level Estimated
04:58PM 57.5640 152.9761 142° Southeast  Level Estimated
04:59PM 57.4659 153.1164 142° Southeast  Level Estimated
05:00PM 57.3676 153.2560 143° Southeast  Level Estimated
05:01PM 57.2691 153.3949 143° Southeast  Level Estimated
05:02PM 57.1706 153.5330 143° Southeast  Level Estimated
05:03PM 57.0718 153.6703 143° Southeast  Level Estimated
05:04PM 56.9729 153.8070 143° Southeast  Level Estimated
05:05PM 56.8739 153.9429 143° Southeast  Level Estimated
05:06PM 56.7747 154.0781 143° Southeast  Level Estimated
05:07PM 56.6753 154.2126 143° Southeast  Level Estimated
05:08PM 56.5758 154.3464 143° Southeast  Level Estimated
05:09PM 56.4762 154.4795 144° Southeast  Level Estimated
05:10PM 56.3764 154.6118 144° Southeast  Level Estimated
05:11PM 56.2765 154.7435 144° Southeast  Level Estimated
05:12PM 56.1765 154.8745 144° Southeast  Level Estimated
05:13PM 56.0763 155.0049 144° Southeast  Level Estimated
05:14PM 55.9760 155.1345 144° Southeast  Level Estimated
05:15PM 55.8755 155.2635 144° Southeast  Level Estimated
05:16PM 55.7749 155.3918 144° Southeast  Level Estimated
05:17PM 55.6742 155.5194 144° Southeast  Level Estimated
05:18PM 55.5733 155.6464 145° Southeast  Level Estimated
05:19PM 55.4724 155.7728 145° Southeast  Level Estimated
05:20PM 55.3713 155.8985 145° Southeast  Level Estimated
05:21PM 55.2700 156.0235 145° Southeast  Level Estimated
05:22PM 55.1686 156.1479 145° Southeast  Level Estimated
05:23PM 55.0671 156.2717 145° Southeast  Level Estimated
05:24PM 54.9655 156.3949 145° Southeast  Level Estimated
05:25PM 54.8638 156.5174 145° Southeast  Level Estimated
05:26PM 54.7619 156.6393 145° Southeast  Level Estimated
05:27PM 54.6599 156.7606 145° Southeast  Level Estimated
05:28PM 54.5578 156.8813 146° Southeast  Level Estimated
05:29PM 54.4556 157.0014 146° Southeast  Level Estimated
05:30PM 54.3532 157.1209 146° Southeast  Level Estimated
05:31PM 54.2508 157.2398 146° Southeast  Level Estimated
05:32PM 54.1482 157.3581 146° Southeast  Level Estimated
05:33PM 54.0455 157.4759 146° Southeast  Level Estimated
05:34PM 53.9427 157.5930 146° Southeast  Level Estimated
05:35PM 53.8397 157.7096 146° Southeast  Level Estimated
05:36PM 53.7367 157.8256 146° Southeast  Level Estimated
05:37PM 53.6335 157.9410 146° Southeast  Level Estimated
05:38PM 53.5303 158.0559 147° Southeast  Level Estimated
05:39PM 53.4269 158.1702 147° Southeast  Level Estimated
05:40PM 53.3234 158.2839 147° Southeast  Level Estimated